Time;durP1;ratioP1;P1;durP2;ratioP2;P2;SDS_P1;SDS_P2;PMS_P1;PMS_P2;Temp;Humidity;BMP_temperature;BMP_pressure;BME280_temperature;BME280_humidity;BME280_pressure;Samples;Min_cycle;Max_cycle;Signal;HPM_P1;HPM_P2
2022/09/19 00:01:15;;;;;;;;;;;12.20;99.90;;;;;;5036871;28;19936;-81
2022/09/19 00:03:46;;;;;;;;;;;12.00;99.90;;;;;;5036536;28;19929;-81
2022/09/19 00:06:13;;;;;;;;;;;12.10;99.90;;;;;;5052852;28;19964;-81
2022/09/19 00:08:40;;;;;;;;;;;12.00;99.90;;;;;;5036356;28;20283;-80
2022/09/19 00:11:06;;;;;;;;;;;12.00;99.90;;;;;;5036760;28;20326;-81
2022/09/19 00:13:32;;;;;;;;;;;12.10;99.90;;;;;;5037229;28;19936;-81
2022/09/19 00:15:57;;;;;;;;;;;12.10;99.90;;;;;;5036601;28;19925;-82
2022/09/19 00:18:23;;;;;;;;;;;12.20;99.90;;;;;;5036355;28;19959;-82
2022/09/19 00:20:50;;;;;;;;;;;12.20;99.90;;;;;;5019538;28;19925;-81
2022/09/19 00:26:04;;;;;;;;;;;12.20;99.90;;;;;;5052541;28;20062;-81
2022/09/19 00:28:30;;;;;;;;;;;12.20;99.90;;;;;;5035796;28;20007;-81
2022/09/19 00:30:56;;;;;;;;;;;12.20;99.90;;;;;;5052761;28;19925;-81
2022/09/19 00:33:22;;;;;;;;;;;12.20;99.90;;;;;;5036171;28;19936;-80
2022/09/19 00:35:54;;;;;;;;;;;12.30;99.90;;;;;;5052764;28;19947;-80
2022/09/19 00:38:23;;;;;;;;;;;12.30;99.90;;;;;;5036978;28;19964;-79
2022/09/19 00:40:49;;;;;;;;;;;12.50;99.90;;;;;;5052323;28;20391;-80
2022/09/19 00:43:16;;;;;;;;;;;12.60;99.90;;;;;;5052650;28;20015;-81
2022/09/19 00:45:42;;;;;;;;;;;12.70;99.90;;;;;;5052883;28;19932;-81
2022/09/19 00:48:08;;;;;;;;;;;12.70;99.90;;;;;;5036263;28;19925;-82
2022/09/19 00:50:34;;;;;;;;;;;12.70;99.90;;;;;;5035939;28;19932;-81
2022/09/19 00:53:08;;;;;;;;;;;12.80;99.90;;;;;;5036705;28;19928;-81
2022/09/19 00:55:36;;;;;;;;;;;12.80;99.90;;;;;;5036289;28;19925;-80
2022/09/19 00:58:05;;;;;;;;;;;12.80;99.90;;;;;;5052236;28;19928;-82
2022/09/19 01:00:32;;;;;;;;;;;12.80;99.90;;;;;;5035646;28;19924;-82
2022/09/19 01:02:57;;;;;;;;;;;12.80;99.90;;;;;;5052474;28;19925;-81
2022/09/19 01:05:27;;;;;;;;;;;12.80;99.90;;;;;;5035797;28;19974;-81
2022/09/19 01:07:53;;;;;;;;;;;12.80;99.90;;;;;;5052392;28;19928;-80
2022/09/19 01:10:18;;;;;;;;;;;12.90;99.90;;;;;;5036057;28;19925;-80
2022/09/19 01:13:09;;;;;;;;;;;13.00;99.90;;;;;;5052393;28;19925;-79
2022/09/19 01:16:07;;;;;;;;;;;13.00;99.90;;;;;;5052627;28;19964;-79
2022/09/19 01:18:53;;;;;;;;;;;13.00;99.90;;;;;;4994141;28;19963;-81
2022/09/19 01:24:22;;;;;;;;;;;13.10;99.90;;;;;;5056995;28;19932;-80
2022/09/19 01:27:18;;;;;;;;;;;13.20;99.90;;;;;;5055835;28;19925;-80
2022/09/19 01:29:58;;;;;;;;;;;13.30;99.90;;;;;;5022872;28;20390;-80
2022/09/19 01:32:33;;;;;;;;;;;13.30;99.90;;;;;;5039500;28;20280;-81
2022/09/19 01:35:02;;;;;;;;;;;13.30;99.90;;;;;;5056857;28;19932;-81
2022/09/19 01:37:32;;;;;;;;;;;13.20;99.90;;;;;;5039367;28;19979;-79
2022/09/19 01:40:00;;;;;;;;;;;13.30;99.90;;;;;;5039044;28;19925;-81
2022/09/19 01:42:26;;;;;;;;;;;13.30;99.90;;;;;;5055930;28;20285;-83
2022/09/19 01:44:52;;;;;;;;;;;13.30;99.90;;;;;;5056567;28;19929;-79
2022/09/19 01:47:23;;;;;;;;;;;13.30;99.90;;;;;;5039139;28;19947;-79
2022/09/19 01:50:23;;;;;;;;;;;13.30;99.90;;;;;;5039423;28;20280;-79
2022/09/19 01:52:52;;;;;;;;;;;13.30;99.90;;;;;;5012778;28;19932;-82
2022/09/19 01:55:17;;;;;;;;;;;13.30;99.90;;;;;;5056334;28;19925;-82
2022/09/19 01:57:58;;;;;;;;;;;13.40;99.90;;;;;;5039003;28;20327;-80
2022/09/19 02:00:25;;;;;;;;;;;13.30;99.90;;;;;;5055285;28;19974;-79
2022/09/19 02:02:57;;;;;;;;;;;13.40;99.90;;;;;;5055508;28;19947;-80
2022/09/19 02:05:22;;;;;;;;;;;13.40;99.90;;;;;;5056162;28;19924;-80
2022/09/19 02:08:08;;;;;;;;;;;13.40;99.90;;;;;;5038892;28;20312;-79
2022/09/19 02:10:54;;;;;;;;;;;13.40;99.90;;;;;;5038814;28;19929;-81
2022/09/19 02:13:24;;;;;;;;;;;13.40;99.90;;;;;;5054756;28;20023;-81
2022/09/19 02:15:56;;;;;;;;;;;13.50;99.90;;;;;;5055988;28;20252;-81
2022/09/19 02:18:35;;;;;;;;;;;13.50;99.90;;;;;;5038276;28;19931;-80
2022/09/19 02:21:10;;;;;;;;;;;13.40;99.90;;;;;;5038322;28;19929;-82
2022/09/19 02:23:38;;;;;;;;;;;13.40;99.90;;;;;;5055385;28;20023;-81
2022/09/19 02:26:05;;;;;;;;;;;13.40;99.90;;;;;;5038563;28;19928;-78
2022/09/19 02:28:38;;;;;;;;;;;13.40;99.90;;;;;;5038219;28;19930;-78
2022/09/19 02:31:05;;;;;;;;;;;13.50;99.90;;;;;;5054470;28;19924;-80
2022/09/19 02:33:32;;;;;;;;;;;13.50;99.90;;;;;;5038329;28;19924;-80
2022/09/19 02:36:02;;;;;;;;;;;13.50;99.90;;;;;;5054885;28;19925;-81
2022/09/19 02:38:36;;;;;;;;;;;13.50;99.90;;;;;;5038270;28;19925;-81
2022/09/19 02:41:04;;;;;;;;;;;13.60;99.90;;;;;;5037845;28;20018;-79
2022/09/19 02:43:48;;;;;;;;;;;13.60;99.90;;;;;;5054973;28;19931;-81
2022/09/19 02:46:22;;;;;;;;;;;13.60;99.90;;;;;;5038442;28;19928;-79
2022/09/19 02:49:14;;;;;;;;;;;13.50;99.90;;;;;;5054776;28;19925;-78
2022/09/19 02:51:45;;;;;;;;;;;13.50;99.90;;;;;;5050213;28;20327;-78
2022/09/19 02:54:13;;;;;;;;;;;13.50;99.90;;;;;;5054961;28;19928;-80
2022/09/19 02:56:41;;;;;;;;;;;13.50;99.90;;;;;;5054558;28;19925;-80
2022/09/19 02:59:09;;;;;;;;;;;13.50;99.90;;;;;;5054415;28;20400;-81
2022/09/19 03:01:36;;;;;;;;;;;13.50;99.90;;;;;;5037542;28;19925;-78
2022/09/19 03:04:14;;;;;;;;;;;13.50;99.90;;;;;;5054654;28;19929;-78
2022/09/19 03:06:49;;;;;;;;;;;13.50;99.90;;;;;;5037734;28;19980;-77
2022/09/19 03:09:17;;;;;;;;;;;13.40;99.90;;;;;;5054569;28;20084;-78
2022/09/19 03:11:44;;;;;;;;;;;13.40;99.90;;;;;;5054187;28;19925;-81
2022/09/19 03:14:10;;;;;;;;;;;13.40;99.90;;;;;;5054222;28;20284;-79
2022/09/19 03:16:38;;;;;;;;;;;13.50;99.90;;;;;;5037448;28;19931;-79
2022/09/19 03:19:06;;;;;;;;;;;13.40;99.90;;;;;;5038058;28;19924;-78
2022/09/19 03:21:32;;;;;;;;;;;13.50;99.90;;;;;;5054712;28;20024;-78
2022/09/19 03:24:00;;;;;;;;;;;13.50;99.90;;;;;;5021619;28;19940;-77
2022/09/19 03:26:30;;;;;;;;;;;13.40;99.90;;;;;;5038110;28;19983;-78
2022/09/19 03:28:57;;;;;;;;;;;13.40;99.90;;;;;;5040675;28;19931;-77
2022/09/19 03:31:23;;;;;;;;;;;13.40;99.90;;;;;;5057132;28;20020;-76
2022/09/19 03:33:51;;;;;;;;;;;13.40;99.90;;;;;;5057058;28;19970;-78
2022/09/19 03:36:17;;;;;;;;;;;13.30;99.90;;;;;;5024151;28;19931;-79
2022/09/19 03:38:44;;;;;;;;;;;13.40;99.90;;;;;;5057017;28;19925;-77
2022/09/19 03:41:20;;;;;;;;;;;13.30;99.90;;;;;;5056931;28;19924;-77
2022/09/19 03:43:45;;;;;;;;;;;13.30;99.90;;;;;;5057151;28;19925;-78
2022/09/19 03:46:16;;;;;;;;;;;13.30;99.90;;;;;;5057159;28;19963;-77
2022/09/19 03:48:44;;;;;;;;;;;13.40;99.90;;;;;;5057540;28;19928;-77
2022/09/19 03:51:10;;;;;;;;;;;13.40;99.90;;;;;;5057028;28;19992;-77
2022/09/19 03:53:36;;;;;;;;;;;13.40;99.90;;;;;;5040042;28;19925;-78
2022/09/19 03:56:02;;;;;;;;;;;13.40;99.90;;;;;;5040388;28;19938;-77
2022/09/19 03:58:30;;;;;;;;;;;13.40;99.90;;;;;;5023377;28;19928;-78
2022/09/19 04:00:59;;;;;;;;;;;13.40;99.90;;;;;;5056072;28;19925;-76
2022/09/19 04:03:25;;;;;;;;;;;13.40;99.90;;;;;;5040699;28;20259;-78
2022/09/19 04:05:51;;;;;;;;;;;13.40;99.90;;;;;;5056519;28;20015;-80
2022/09/19 04:08:17;;;;;;;;;;;13.50;99.90;;;;;;5056760;28;19982;-78
2022/09/19 04:10:43;;;;;;;;;;;13.50;99.90;;;;;;5056591;28;19925;-77
2022/09/19 04:13:09;;;;;;;;;;;13.60;99.90;;;;;;5039800;28;19931;-76
2022/09/19 04:15:35;;;;;;;;;;;13.60;99.90;;;;;;5056411;28;20027;-78
2022/09/19 04:18:03;;;;;;;;;;;13.60;99.90;;;;;;5039789;28;19971;-76
2022/09/19 04:20:30;;;;;;;;;;;13.50;99.90;;;;;;5056358;28;19942;-78
2022/09/19 04:23:00;;;;;;;;;;;13.60;99.90;;;;;;5056186;28;19928;-77
2022/09/19 04:25:35;;;;;;;;;;;13.60;99.90;;;;;;5057047;28;19924;-77
2022/09/19 04:28:02;;;;;;;;;;;13.60;99.90;;;;;;5039506;28;20265;-77
2022/09/19 04:30:27;;;;;;;;;;;13.60;99.90;;;;;;5040259;28;20317;-77
2022/09/19 04:32:53;;;;;;;;;;;13.60;99.90;;;;;;5039742;28;19975;-78
2022/09/19 04:35:20;;;;;;;;;;;13.60;99.90;;;;;;5023063;28;19925;-78
2022/09/19 04:37:45;;;;;;;;;;;13.50;99.90;;;;;;5056118;28;19931;-78
2022/09/19 04:40:11;;;;;;;;;;;13.60;99.90;;;;;;5055801;28;19943;-77
2022/09/19 04:42:37;;;;;;;;;;;13.60;99.90;;;;;;5056055;28;19973;-77
2022/09/19 04:45:03;;;;;;;;;;;13.60;99.90;;;;;;5039690;28;19978;-77
2022/09/19 04:47:32;;;;;;;;;;;13.60;99.90;;;;;;5055977;28;19928;-77
2022/09/19 04:49:57;;;;;;;;;;;13.60;99.90;;;;;;5055633;28;19924;-79
2022/09/19 04:52:26;;;;;;;;;;;13.60;99.90;;;;;;5055489;28;19932;-77
2022/09/19 04:54:54;;;;;;;;;;;13.60;99.90;;;;;;5039396;28;19974;-78
2022/09/19 04:57:19;;;;;;;;;;;13.60;99.90;;;;;;5039487;28;19924;-78
2022/09/19 04:59:45;;;;;;;;;;;13.60;99.90;;;;;;5055707;28;20376;-79
2022/09/19 05:02:11;;;;;;;;;;;13.50;99.90;;;;;;5039275;28;20046;-79
2022/09/19 05:04:38;;;;;;;;;;;13.50;99.90;;;;;;5039223;28;20114;-78
2022/09/19 05:07:03;;;;;;;;;;;13.50;99.90;;;;;;5055759;28;20015;-78
2022/09/19 05:09:29;;;;;;;;;;;13.50;99.90;;;;;;5055478;28;20361;-78
2022/09/19 05:11:56;;;;;;;;;;;13.60;99.90;;;;;;5055726;28;19970;-79
2022/09/19 05:14:23;;;;;;;;;;;13.60;99.90;;;;;;5055382;28;19936;-80
2022/09/19 05:16:50;;;;;;;;;;;13.50;99.90;;;;;;5039248;28;19924;-78
2022/09/19 05:19:16;;;;;;;;;;;13.50;99.90;;;;;;5038827;28;19924;-78
2022/09/19 05:21:44;;;;;;;;;;;13.50;99.90;;;;;;5055638;28;19971;-79
2022/09/19 05:24:10;;;;;;;;;;;13.50;99.90;;;;;;5039117;28;19972;-78
2022/09/19 05:26:37;;;;;;;;;;;13.40;99.90;;;;;;5055565;28;20375;-79
2022/09/19 05:29:04;;;;;;;;;;;13.30;99.90;;;;;;5039364;28;19925;-77
2022/09/19 05:31:30;;;;;;;;;;;13.30;99.90;;;;;;5039273;28;19932;-77
2022/09/19 05:33:56;;;;;;;;;;;13.20;99.90;;;;;;5022605;28;19948;-78
2022/09/19 05:36:22;;;;;;;;;;;13.20;99.90;;;;;;5038895;28;20360;-78
2022/09/19 05:38:48;;;;;;;;;;;13.20;99.90;;;;;;5038857;28;19925;-79
2022/09/19 05:41:14;;;;;;;;;;;13.10;99.90;;;;;;5038609;28;19931;-79
2022/09/19 05:43:39;;;;;;;;;;;13.20;99.90;;;;;;5055577;28;19924;-77
2022/09/19 05:46:05;;;;;;;;;;;13.20;99.90;;;;;;5038866;28;19925;-79
2022/09/19 05:48:30;;;;;;;;;;;13.30;99.90;;;;;;5055348;28;19924;-77
2022/09/19 05:50:56;;;;;;;;;;;13.20;99.90;;;;;;5022247;28;20031;-79
2022/09/19 05:56:07;;;;;;;;;;;13.30;99.90;;;;;;5056087;28;20292;-77
2022/09/19 05:58:35;;;;;;;;;;;13.40;99.90;;;;;;5055448;28;19951;-78
2022/09/19 06:01:05;;;;;;;;;;;13.50;99.90;;;;;;5054843;28;19932;-78
2022/09/19 06:03:31;;;;;;;;;;;13.50;99.90;;;;;;5039482;28;19924;-78
2022/09/19 06:05:57;;;;;;;;;;;13.60;99.90;;;;;;5057094;28;19925;-78
2022/09/19 06:08:22;;;;;;;;;;;13.70;99.90;;;;;;5058474;28;20015;-77
2022/09/19 06:10:48;;;;;;;;;;;13.60;99.90;;;;;;5042265;28;19924;-80
2022/09/19 06:13:23;;;;;;;;;;;13.60;99.90;;;;;;5058655;28;19969;-78
2022/09/19 06:15:49;;;;;;;;;;;13.60;99.90;;;;;;5058871;28;20019;-79
2022/09/19 06:18:15;;;;;;;;;;;13.60;99.90;;;;;;5041720;28;19924;-79
2022/09/19 06:20:41;;;;;;;;;;;13.60;99.90;;;;;;5058469;28;19925;-78
2022/09/19 06:23:08;;;;;;;;;;;13.70;99.90;;;;;;5059084;28;19971;-79
2022/09/19 06:25:35;;;;;;;;;;;13.60;99.90;;;;;;5041871;28;19931;-78
2022/09/19 06:28:01;;;;;;;;;;;13.60;99.90;;;;;;5024915;28;19929;-77
2022/09/19 06:30:27;;;;;;;;;;;13.70;99.90;;;;;;5041859;28;19924;-79
2022/09/19 06:32:53;;;;;;;;;;;13.70;99.90;;;;;;5059131;28;19925;-78
2022/09/19 06:35:20;;;;;;;;;;;13.70;99.90;;;;;;5041821;28;20327;-78
2022/09/19 06:37:47;;;;;;;;;;;13.70;99.90;;;;;;5058241;28;19933;-77
2022/09/19 06:40:13;;;;;;;;;;;13.70;99.90;;;;;;5058627;28;20318;-79
2022/09/19 06:42:38;;;;;;;;;;;13.70;99.90;;;;;;5041475;28;19925;-78
2022/09/19 06:45:07;;;;;;;;;;;13.70;99.90;;;;;;5058320;28;19925;-77
2022/09/19 06:47:33;;;;;;;;;;;13.70;99.90;;;;;;5042551;28;19925;-77
2022/09/19 06:50:02;;;;;;;;;;;13.70;99.90;;;;;;5057916;28;19924;-78
2022/09/19 06:52:28;;;;;;;;;;;13.60;99.90;;;;;;5057982;28;20362;-78
2022/09/19 06:54:53;;;;;;;;;;;13.60;99.90;;;;;;5057566;28;20390;-79
2022/09/19 06:57:19;;;;;;;;;;;13.60;99.90;;;;;;5024728;28;19924;-78
2022/09/19 06:59:45;;;;;;;;;;;13.70;99.90;;;;;;5057561;28;19931;-79
2022/09/19 07:02:10;;;;;;;;;;;13.70;99.90;;;;;;5041173;28;19939;-78
2022/09/19 07:04:36;;;;;;;;;;;13.80;99.90;;;;;;5041974;28;19925;-79
2022/09/19 07:07:02;;;;;;;;;;;13.90;99.90;;;;;;5041084;28;19958;-78
2022/09/19 07:09:28;;;;;;;;;;;14.00;99.90;;;;;;5058321;28;19924;-79
2022/09/19 07:11:56;;;;;;;;;;;14.00;99.90;;;;;;5058290;28;20340;-79
2022/09/19 07:14:22;;;;;;;;;;;14.00;99.90;;;;;;5057218;28;19928;-78
2022/09/19 07:16:48;;;;;;;;;;;13.90;99.90;;;;;;5041239;28;19932;-78
2022/09/19 07:19:13;;;;;;;;;;;14.00;99.90;;;;;;5040918;28;19924;-78
2022/09/19 07:21:39;;;;;;;;;;;14.00;99.90;;;;;;5057468;28;19924;-78
2022/09/19 07:24:06;;;;;;;;;;;14.00;99.90;;;;;;5058081;28;20011;-79
2022/09/19 07:26:31;;;;;;;;;;;14.10;99.90;;;;;;5024142;28;20308;-78
2022/09/19 07:28:57;;;;;;;;;;;14.20;99.90;;;;;;5040710;28;19932;-80
2022/09/19 07:31:23;;;;;;;;;;;14.10;99.90;;;;;;5040584;28;19925;-80
2022/09/19 07:33:48;;;;;;;;;;;14.30;99.90;;;;;;5057099;28;19924;-79
2022/09/19 07:36:14;;;;;;;;;;;14.30;99.90;;;;;;5040510;28;19924;-79
2022/09/19 07:38:39;;;;;;;;;;;14.40;99.90;;;;;;5057065;28;19925;-79
2022/09/19 07:41:05;;;;;;;;;;;14.50;99.90;;;;;;5039841;28;20041;-78
2022/09/19 07:43:31;;;;;;;;;;;14.50;99.90;;;;;;5056944;28;19931;-79
2022/09/19 07:45:57;;;;;;;;;;;14.60;99.90;;;;;;5056909;28;19925;-79
2022/09/19 07:48:22;;;;;;;;;;;14.60;99.90;;;;;;5040205;28;19924;-78
2022/09/19 07:50:48;;;;;;;;;;;14.70;99.90;;;;;;5056892;28;19924;-78
2022/09/19 07:53:15;;;;;;;;;;;14.70;99.90;;;;;;5057041;28;19979;-77
2022/09/19 07:55:42;;;;;;;;;;;14.80;99.90;;;;;;5056756;28;20383;-78
2022/09/19 07:58:10;;;;;;;;;;;14.90;99.90;;;;;;5056921;28;19932;-78
2022/09/19 08:00:36;;;;;;;;;;;14.90;99.90;;;;;;5040151;28;19924;-78
2022/09/19 08:03:02;;;;;;;;;;;14.80;99.90;;;;;;5039997;28;20312;-78
2022/09/19 08:05:32;;;;;;;;;;;14.90;99.90;;;;;;5056471;28;20253;-78
2022/09/19 08:07:58;;;;;;;;;;;14.90;99.90;;;;;;5056744;28;19928;-77
2022/09/19 08:10:23;;;;;;;;;;;14.90;99.90;;;;;;5039621;28;20015;-79
2022/09/19 08:12:49;;;;;;;;;;;15.00;99.90;;;;;;5056472;28;19931;-78
2022/09/19 08:15:16;;;;;;;;;;;15.00;99.90;;;;;;5057104;28;20249;-79
2022/09/19 08:18:08;;;;;;;;;;;15.00;99.90;;;;;;5039715;28;19928;-77
2022/09/19 08:20:36;;;;;;;;;;;15.10;99.90;;;;;;5052555;28;20386;-77
2022/09/19 08:23:09;;;;;;;;;;;15.20;99.90;;;;;;5039914;28;19943;-78
2022/09/19 08:25:35;;;;;;;;;;;15.30;99.90;;;;;;5039520;28;19978;-77
2022/09/19 08:28:04;;;;;;;;;;;15.30;99.90;;;;;;5055195;28;19932;-78
2022/09/19 08:30:30;;;;;;;;;;;15.30;99.90;;;;;;5056115;28;19978;-77
2022/09/19 08:32:56;;;;;;;;;;;15.40;99.90;;;;;;5039603;28;19931;-76
2022/09/19 08:35:23;;;;;;;;;;;15.40;99.90;;;;;;5039452;28;19928;-76
2022/09/19 08:37:56;;;;;;;;;;;15.50;99.90;;;;;;5056371;28;19931;-77
2022/09/19 08:40:29;;;;;;;;;;;15.60;99.90;;;;;;5039135;28;19933;-77
2022/09/19 08:42:58;;;;;;;;;;;15.80;99.90;;;;;;5056786;28;19967;-77
2022/09/19 08:45:31;;;;;;;;;;;15.90;99.90;;;;;;5056049;28;19947;-78
2022/09/19 08:47:57;;;;;;;;;;;15.90;99.90;;;;;;5056517;28;20349;-79
2022/09/19 08:50:28;;;;;;;;;;;15.80;99.90;;;;;;5039054;28;19931;-79
2022/09/19 08:52:55;;;;;;;;;;;15.70;99.90;;;;;;5039558;28;19929;-79
2022/09/19 08:55:22;;;;;;;;;;;15.60;99.90;;;;;;5039301;28;19924;-79
2022/09/19 08:57:54;;;;;;;;;;;15.60;99.90;;;;;;5039333;28;19968;-79
2022/09/19 09:00:21;;;;;;;;;;;15.60;99.90;;;;;;5056390;28;20037;-79
2022/09/19 09:02:58;;;;;;;;;;;15.70;99.90;;;;;;5039277;28;20050;-79
2022/09/19 09:05:31;;;;;;;;;;;15.70;99.90;;;;;;5039132;28;19924;-79
2022/09/19 09:08:01;;;;;;;;;;;15.60;99.90;;;;;;5039211;28;20407;-79
2022/09/19 09:10:33;;;;;;;;;;;15.40;99.90;;;;;;5056487;28;19924;-79
2022/09/19 09:13:04;;;;;;;;;;;15.10;99.90;;;;;;5056472;28;19935;-79
2022/09/19 09:15:30;;;;;;;;;;;15.00;99.90;;;;;;5055437;28;19928;-79
2022/09/19 09:18:07;;;;;;;;;;;14.70;99.90;;;;;;5055409;28;19933;-79
2022/09/19 09:20:52;;;;;;;;;;;14.60;99.90;;;;;;5056234;28;19925;-79
2022/09/19 09:23:27;;;;;;;;;;;14.60;99.90;;;;;;5055609;28;19925;-80
2022/09/19 09:25:58;;;;;;;;;;;14.60;99.90;;;;;;5039804;28;19932;-79
2022/09/19 09:28:35;;;;;;;;;;;14.80;99.90;;;;;;5055421;28;20383;-80
2022/09/19 09:31:16;;;;;;;;;;;15.00;99.90;;;;;;5038954;28;19925;-80
2022/09/19 09:33:51;;;;;;;;;;;15.30;99.90;;;;;;5055510;28;20390;-79
2022/09/19 09:36:22;;;;;;;;;;;15.50;99.90;;;;;;5055557;28;19924;-79
2022/09/19 09:38:52;;;;;;;;;;;15.50;99.90;;;;;;5039965;28;20035;-79
2022/09/19 09:41:45;;;;;;;;;;;15.50;99.90;;;;;;5058989;28;19940;-79
2022/09/19 09:44:14;;;;;;;;;;;15.50;99.90;;;;;;5042832;28;19929;-79
2022/09/19 09:46:48;;;;;;;;;;;15.70;99.90;;;;;;5059987;28;19981;-79
2022/09/19 09:49:14;;;;;;;;;;;15.80;99.90;;;;;;5059923;28;20279;-79
2022/09/19 09:51:58;;;;;;;;;;;16.00;99.90;;;;;;5059887;28;20023;-77
2022/09/19 09:57:29;;;;;;;;;;;16.10;99.90;;;;;;5059281;28;19924;-77
2022/09/19 10:05:46;;;;;;;;;;;16.60;99.90;;;;;;5058750;28;19931;-78
2022/09/19 10:08:22;;;;;;;;;;;16.70;99.90;;;;;;5059601;28;19928;-78
2022/09/19 10:10:53;;;;;;;;;;;16.70;99.90;;;;;;5058668;28;20322;-78
2022/09/19 10:13:27;;;;;;;;;;;16.80;99.90;;;;;;5042334;28;19968;-79
2022/09/19 10:15:54;;;;;;;;;;;16.90;99.90;;;;;;5058671;28;19924;-79
2022/09/19 10:18:23;;;;;;;;;;;17.10;99.90;;;;;;5041929;28;19931;-79
2022/09/19 10:20:51;;;;;;;;;;;17.20;99.90;;;;;;5059001;28;19930;-77
2022/09/19 10:23:23;;;;;;;;;;;17.30;99.90;;;;;;5058789;28;19998;-79
2022/09/19 10:25:50;;;;;;;;;;;17.20;99.90;;;;;;5041633;28;19932;-78
2022/09/19 10:28:22;;;;;;;;;;;17.40;99.90;;;;;;5058119;28;20015;-78
2022/09/19 10:30:55;;;;;;;;;;;17.30;99.90;;;;;;5059167;28;20276;-77
2022/09/19 10:33:25;;;;;;;;;;;17.50;99.90;;;;;;5058330;28;19924;-77
2022/09/19 10:35:54;;;;;;;;;;;17.40;99.90;;;;;;5058506;28;19925;-78
2022/09/19 10:38:21;;;;;;;;;;;17.30;99.90;;;;;;5025056;28;19994;-79
2022/09/19 10:40:52;;;;;;;;;;;17.10;99.90;;;;;;5024596;28;19932;-79
2022/09/19 10:43:21;;;;;;;;;;;16.90;99.90;;;;;;5041711;28;19931;-79
2022/09/19 10:45:47;;;;;;;;;;;16.70;99.90;;;;;;5058045;28;20057;-79
2022/09/19 10:48:39;;;;;;;;;;;16.90;99.90;;;;;;5041700;28;19986;-78
2022/09/19 10:51:09;;;;;;;;;;;17.10;99.90;;;;;;5037366;28;19924;-79
2022/09/19 10:53:36;;;;;;;;;;;17.10;99.90;;;;;;5057922;28;19924;-78
2022/09/19 10:56:04;;;;;;;;;;;17.30;99.90;;;;;;5057847;28;19928;-78
2022/09/19 10:58:35;;;;;;;;;;;17.50;99.90;;;;;;5057805;28;20330;-78
2022/09/19 11:01:02;;;;;;;;;;;17.70;99.90;;;;;;5057720;28;20360;-78
2022/09/19 11:03:32;;;;;;;;;;;17.80;99.90;;;;;;5041095;28;19924;-80
2022/09/19 11:06:10;;;;;;;;;;;17.90;99.90;;;;;;5041224;28;19931;-78
2022/09/19 11:08:42;;;;;;;;;;;17.90;99.90;;;;;;5057593;28;19951;-77
2022/09/19 11:11:19;;;;;;;;;;;18.00;99.90;;;;;;5058469;28;19930;-78
2022/09/19 11:13:45;;;;;;;;;;;18.00;99.90;;;;;;5057785;28;19924;-78
2022/09/19 11:16:21;;;;;;;;;;;18.10;99.90;;;;;;5040881;28;19931;-77
2022/09/19 11:18:57;;;;;;;;;;;18.30;99.90;;;;;;5057791;28;19970;-77
2022/09/19 11:21:26;;;;;;;;;;;18.70;99.90;;;;;;5057091;28;19932;-78
2022/09/19 11:23:56;;;;;;;;;;;18.90;99.90;;;;;;5057439;28;19970;-78
2022/09/19 11:26:25;;;;;;;;;;;18.90;99.90;;;;;;5057868;28;20257;-78
2022/09/19 11:29:04;;;;;;;;;;;19.10;99.90;;;;;;5057561;28;19924;-78
2022/09/19 11:31:30;;;;;;;;;;;18.90;99.90;;;;;;5040686;28;19932;-78
2022/09/19 11:34:03;;;;;;;;;;;18.30;99.90;;;;;;5040523;28;19925;-78
2022/09/19 11:36:44;;;;;;;;;;;17.70;99.90;;;;;;5057135;28;19925;-78
2022/09/19 11:39:20;;;;;;;;;;;17.20;99.90;;;;;;5057889;28;19972;-78
2022/09/19 11:41:56;;;;;;;;;;;16.50;99.90;;;;;;5056989;28;20019;-78
2022/09/19 11:44:30;;;;;;;;;;;16.00;99.90;;;;;;5057799;28;19936;-78
2022/09/19 11:47:18;;;;;;;;;;;15.80;99.90;;;;;;5057286;28;19931;-81
2022/09/19 11:49:51;;;;;;;;;;;14.90;99.90;;;;;;5040941;28;19924;-81
2022/09/19 11:52:28;;;;;;;;;;;14.30;99.90;;;;;;5040447;28;19930;-81
2022/09/19 11:55:13;;;;;;;;;;;13.90;99.90;;;;;;5057032;28;19925;-81
2022/09/19 11:57:41;;;;;;;;;;;13.70;99.90;;;;;;5056654;28;20345;-81
2022/09/19 12:00:26;;;;;;;;;;;13.70;99.90;;;;;;5039994;28;19924;-81
2022/09/19 12:03:04;;;;;;;;;;;13.60;99.90;;;;;;5039216;28;19929;-79
2022/09/19 12:05:39;;;;;;;;;;;13.70;99.90;;;;;;5057327;28;19924;-80
2022/09/19 12:08:14;;;;;;;;;;;13.60;99.90;;;;;;5056512;28;19932;-81
2022/09/19 12:10:47;;;;;;;;;;;13.60;99.90;;;;;;5056584;28;20023;-82
2022/09/19 12:13:16;;;;;;;;;;;13.60;99.90;;;;;;5040256;28;19951;-82
2022/09/19 12:15:57;;;;;;;;;;;13.50;99.90;;;;;;5040068;28;19935;-82
2022/09/19 12:18:26;;;;;;;;;;;13.40;99.90;;;;;;5040482;28;19925;-80
2022/09/19 12:20:54;;;;;;;;;;;13.50;99.90;;;;;;5055971;28;20023;-81
2022/09/19 12:26:11;;;;;;;;;;;13.80;99.90;;;;;;5056225;28;19928;-81
2022/09/19 12:28:42;;;;;;;;;;;14.00;99.90;;;;;;5055968;28;19932;-81
2022/09/19 12:31:10;;;;;;;;;;;14.20;99.90;;;;;;5056475;28;20292;-81
2022/09/19 12:33:43;;;;;;;;;;;14.30;99.90;;;;;;5056131;28;19924;-80
2022/09/19 12:36:10;;;;;;;;;;;14.40;99.90;;;;;;5040241;28;19946;-82
2022/09/19 12:38:44;;;;;;;;;;;14.60;99.90;;;;;;5039565;28;20312;-81
2022/09/19 12:41:21;;;;;;;;;;;14.70;99.90;;;;;;5055398;28;19932;-81
2022/09/19 12:43:54;;;;;;;;;;;14.90;99.90;;;;;;5056020;28;20011;-80
2022/09/19 12:46:37;;;;;;;;;;;15.10;99.90;;;;;;5056796;28;20030;-79
2022/09/19 12:49:15;;;;;;;;;;;15.60;99.90;;;;;;5039613;28;20029;-81
2022/09/19 12:51:49;;;;;;;;;;;16.00;99.90;;;;;;5055908;28;20042;-81
2022/09/19 12:54:17;;;;;;;;;;;16.60;99.90;;;;;;5039427;28;19925;-79
2022/09/19 12:56:48;;;;;;;;;;;17.20;99.90;;;;;;5039174;28;19925;-80
2022/09/19 12:59:17;;;;;;;;;;;17.60;99.90;;;;;;5055821;28;19925;-81
2022/09/19 13:01:47;;;;;;;;;;;17.90;99.90;;;;;;5055828;28;19935;-79
2022/09/19 13:04:27;;;;;;;;;;;18.10;99.90;;;;;;5039154;28;20439;-79
2022/09/19 13:06:57;;;;;;;;;;;18.30;99.90;;;;;;5056529;28;19947;-78
2022/09/19 13:09:37;;;;;;;;;;;18.30;99.90;;;;;;5039166;28;19931;-78
2022/09/19 13:12:11;;;;;;;;;;;18.70;99.90;;;;;;5056095;28;19935;-80
2022/09/19 13:14:43;;;;;;;;;;;18.90;99.90;;;;;;5058141;28;19924;-79
2022/09/19 13:25:28;;;;;;;;;;;19.30;99.90;;;;;;5059884;28;20272;-80
2022/09/19 13:28:12;;;;;;;;;;;19.20;99.90;;;;;;5059017;28;19925;-81
2022/09/19 13:30:48;;;;;;;;;;;18.70;99.90;;;;;;5059405;28;20365;-80
2022/09/19 13:33:21;;;;;;;;;;;18.00;99.90;;;;;;5060284;28;20252;-80
2022/09/19 13:35:47;;;;;;;;;;;18.20;99.90;;;;;;5060111;28;20318;-80
2022/09/19 13:38:22;;;;;;;;;;;18.90;99.90;;;;;;5059617;28;19977;-80
2022/09/19 13:40:59;;;;;;;;;;;19.50;99.90;;;;;;5059475;28;20036;-78
2022/09/19 13:43:34;;;;;;;;;;;19.70;99.90;;;;;;5060119;28;19925;-80
2022/09/19 13:46:10;;;;;;;;;;;20.00;99.90;;;;;;5059992;28;20070;-79
2022/09/19 13:48:47;;;;;;;;;;;19.90;98.80;;;;;;5042494;28;19931;-79
2022/09/19 13:51:22;;;;;;;;;;;20.60;98.40;;;;;;5059016;28;19950;-79
2022/09/19 13:54:08;;;;;;;;;;;20.70;96.90;;;;;;5058975;28;19932;-79
2022/09/19 13:56:36;;;;;;;;;;;21.00;98.60;;;;;;5031507;28;20011;-78
2022/09/19 13:59:23;;;;;;;;;;;20.80;97.50;;;;;;5059723;28;20450;-79
2022/09/19 14:01:59;;;;;;;;;;;20.30;96.40;;;;;;5058872;28;19931;-78
2022/09/19 14:07:23;;;;;;;;;;;20.30;99.00;;;;;;5058879;28;19931;-80
2022/09/19 14:10:06;;;;;;;;;;;20.30;98.30;;;;;;5043031;28;20015;-78
2022/09/19 14:12:46;;;;;;;;;;;20.00;97.50;;;;;;5058834;28;19931;-77
2022/09/19 14:15:32;;;;;;;;;;;19.30;98.40;;;;;;5059452;28;19951;-79
2022/09/19 14:18:25;;;;;;;;;;;18.50;99.10;;;;;;5042009;28;19970;-79
2022/09/19 14:20:54;;;;;;;;;;;17.80;99.90;;;;;;5016172;28;19971;-77
2022/09/19 14:23:21;;;;;;;;;;;17.30;99.90;;;;;;5058555;28;20015;-78
2022/09/19 14:26:13;;;;;;;;;;;16.80;99.90;;;;;;5057453;28;19931;-78
2022/09/19 14:29:02;;;;;;;;;;;16.70;99.90;;;;;;5018431;28;19993;-78
2022/09/19 14:31:30;;;;;;;;;;;16.30;99.90;;;;;;5058744;28;19924;-78
2022/09/19 14:34:13;;;;;;;;;;;16.20;99.90;;;;;;5058338;28;19978;-77
2022/09/19 14:36:57;;;;;;;;;;;16.40;99.90;;;;;;5057993;28;20380;-77
2022/09/19 14:39:33;;;;;;;;;;;17.00;99.90;;;;;;5041223;28;19931;-79
2022/09/19 14:42:14;;;;;;;;;;;17.50;99.90;;;;;;5058968;28;19924;-78
2022/09/19 14:45:00;;;;;;;;;;;17.60;99.90;;;;;;5042376;28;19925;-78
2022/09/19 14:47:31;;;;;;;;;;;17.10;99.90;;;;;;5047282;28;20386;-77
2022/09/19 14:50:07;;;;;;;;;;;16.60;99.90;;;;;;5058298;28;19973;-78
2022/09/19 14:52:35;;;;;;;;;;;16.60;99.90;;;;;;5042108;28;19932;-78
2022/09/19 14:55:03;;;;;;;;;;;16.60;99.90;;;;;;5058128;28;19928;-78
2022/09/19 14:57:31;;;;;;;;;;;16.40;99.90;;;;;;5057917;28;20019;-78
2022/09/19 15:00:12;;;;;;;;;;;16.30;99.90;;;;;;5041172;28;20019;-79
2022/09/19 15:02:39;;;;;;;;;;;16.80;99.90;;;;;;5058658;28;20253;-78
2022/09/19 15:05:04;;;;;;;;;;;17.70;99.90;;;;;;5058059;28;19963;-77
2022/09/19 15:07:31;;;;;;;;;;;18.50;99.90;;;;;;5057750;28;19954;-78